Aviation Digital Data Service (ADDS)

Output produced by METARs form (0905 UTC 25 May 2016)
found at http://www.aviationweather.gov/adds/metars/
 
KMIV 250854Z AUTO 00000KT 10SM CLR 12/11 A3005 RMK AO2 SLP175 T01220106 52009
KMIV 250523Z 2506/2606 25004KT P6SM SKC 
     FM251400 29007KT P6SM SKC 
     FM251900 27010KT P6SM SKC 
     FM260000 00000KT P6SM SKC